»·PEaware :: N226AN KBUR-KLAS

N226AN :: KBUR-KLAS

FLIGHT INFORMATION

Flight Status: Arrived
Operator: Privately registered:
United States
More flights under this callsign
Pilot: Romain L. (19401)
Aircraft: AIRBUS A320
(A320)
More flights by this aircraft type
Origin: KBUR Bob Hope-Burbank
United States
Destination: KLAS McCarran Intl
United States
More flights between these airports :: More routes between these airports
Route: SLAPP1 MISEN KEPEC6
File this flight plan on PilotEdge
Remarks:
Altitude:
(Current/Filed)
25,000ft
Speed:
(Current/Filed)
0kts
Departed: 26-Sep-18 12:18 PM
Arrived: 26-Sep-18 01:14 PM
Distance/Time
Traveled:
194nm/0:56
Distance/Time
To Go:
Arrived

Flight Plot

Page will automatically refresh every two minutes.

Flight plan parsing failed; only flown route is shown


Map Options




Map Legend


Flown Route
Filed Route
Departure Airport
Arrival Airport
Navaid (VOR, NDB)
Fix

Horizontal Profiles

Position Reports

Time Latitude Longitude Heading Altitude Ground
Speed
26-Sep-18 11:57 34.196745 -118.351073 181 785ft 0kts
26-Sep-18 11:58 34.196745 -118.351073 181 785ft 0kts
26-Sep-18 11:59 34.196745 -118.351073 181 785ft 0kts
26-Sep-18 12:00 34.196745 -118.351073 181 785ft 0kts
26-Sep-18 12:01 34.196745 -118.351073 181 785ft 0kts
26-Sep-18 12:02 34.196745 -118.351073 181 785ft 0kts
26-Sep-18 12:03 34.196745 -118.351073 181 785ft 0kts
26-Sep-18 12:04 34.196746 -118.351073 181 785ft 0kts
26-Sep-18 12:05 34.196746 -118.351073 181 785ft 0kts
26-Sep-18 12:06 34.197147 -118.350891 248 785ft 2kts
26-Sep-18 12:07 34.197168 -118.350693 270 785ft 0kts
26-Sep-18 12:08 34.197168 -118.350694 270 785ft 0kts
26-Sep-18 12:09 34.197168 -118.350694 270 785ft 0kts
26-Sep-18 12:10 34.197168 -118.350694 270 785ft 0kts
26-Sep-18 12:11 34.197168 -118.350694 270 785ft 0kts
26-Sep-18 12:12 34.197168 -118.350694 270 785ft 0kts
26-Sep-18 12:13 34.197273 -118.352918 269 785ft 4kts
26-Sep-18 12:14 34.200039 -118.355733 347 785ft 23kts
26-Sep-18 12:15 34.208380 -118.358034 348 785ft 26kts
26-Sep-18 12:16 34.211583 -118.359116 315 785ft 0kts
26-Sep-18 12:17 34.211583 -118.359116 315 785ft 0kts
26-Sep-18 12:18 34.211583 -118.359116 315 785ft 0kts
26-Sep-18 12:19 34.211825 -118.359663 272 785ft 8kts
26-Sep-18 12:20 34.209531 -118.359700 166 785ft 53kts
26-Sep-18 12:21 34.177287 -118.352743 192 2032ft 192kts
26-Sep-18 12:22 34.133636 -118.394146 229 3972ft 270kts
26-Sep-18 12:23 34.139330 -118.461301 327 5142ft 272kts
26-Sep-18 12:24 34.205581 -118.452123 22 8691ft 283kts
26-Sep-18 12:25 34.278316 -118.418029 23 11273ft 330kts
26-Sep-18 12:26 34.364305 -118.377428 23 12091ft 362kts
26-Sep-18 12:27 34.450835 -118.337469 24 12120ft 364kts
26-Sep-18 12:28 34.526428 -118.269157 41 12605ft 365kts
26-Sep-18 12:29 34.598921 -118.196555 41 15110ft 374kts
26-Sep-18 12:30 34.666569 -118.112233 69 17548ft 381kts
26-Sep-18 12:31 34.688169 -117.992057 77 19642ft 393kts
26-Sep-18 12:32 34.698062 -117.865388 83 21473ft 407kts
26-Sep-18 12:33 34.705808 -117.731982 83 23167ft 418kts
26-Sep-18 12:34 34.710855 -117.597369 83 24659ft 428kts
26-Sep-18 12:35 34.725634 -117.465029 68 25176ft 439kts
26-Sep-18 12:36 34.759797 -117.337040 69 25180ft 444kts
26-Sep-18 12:37 34.794344 -117.206675 69 25156ft 446kts
26-Sep-18 12:38 34.830810 -117.068235 69 25126ft 449kts
26-Sep-18 12:39 34.861422 -116.951468 69 25118ft 451kts
26-Sep-18 12:40 34.903606 -116.789700 69 25026ft 447kts
26-Sep-18 12:41 34.953393 -116.668303 52 24202ft 394kts
26-Sep-18 12:42 35.013738 -116.561480 53 24134ft 395kts
26-Sep-18 12:43 35.064431 -116.471364 53 24153ft 398kts
26-Sep-18 12:44 35.115977 -116.386617 43 23886ft 389kts
26-Sep-18 12:45 35.173667 -116.314630 44 22713ft 386kts
26-Sep-18 12:46 35.244482 -116.225806 44 21295ft 381kts
26-Sep-18 12:47 35.326976 -116.122019 44 19636ft 373kts
26-Sep-18 12:48 35.384255 -116.049774 44 18486ft 368kts
26-Sep-18 12:49 35.464542 -115.948238 45 16886ft 360kts
26-Sep-18 12:50 35.520039 -115.877873 45 15781ft 354kts
26-Sep-18 12:51 35.585800 -115.794299 45 14485ft 348kts
26-Sep-18 12:52 35.649374 -115.713302 45 13422ft 329kts
26-Sep-18 12:53 35.707167 -115.639542 45 13203ft 310kts
26-Sep-18 12:54 35.771358 -115.575071 7 13204ft 310kts
26-Sep-18 12:55 35.853502 -115.570002 2 13201ft 309kts
26-Sep-18 12:56 35.935531 -115.565514 2 13180ft 309kts
26-Sep-18 12:57 35.989996 -115.504069 68 12411ft 295kts
26-Sep-18 12:58 36.017824 -115.416713 68 11390ft 287kts
26-Sep-18 12:59 36.028696 -115.341763 95 10769ft 269kts
26-Sep-18 13:00 36.022724 -115.260096 95 9811ft 268kts
26-Sep-18 13:01 36.016595 -115.174797 94 8850ft 264kts
26-Sep-18 13:02 36.010927 -115.090770 94 8205ft 243kts
26-Sep-18 13:03 36.006114 -115.011165 93 8157ft 234kts
26-Sep-18 13:04 36.001345 -114.931211 92 8136ft 231kts
26-Sep-18 13:05 35.996585 -114.852270 93 7884ft 237kts
26-Sep-18 13:06 35.991429 -114.771856 93 6810ft 238kts
26-Sep-18 13:07 35.986352 -114.695012 91 6405ft 211kts
26-Sep-18 13:08 36.025233 -114.671372 312 6412ft 209kts
26-Sep-18 13:09 36.047582 -114.736077 291 6385ft 204kts
26-Sep-18 13:10 36.067296 -114.800737 292 5634ft 202kts
26-Sep-18 13:11 36.074323 -114.868583 270 5015ft 204kts
26-Sep-18 13:12 36.074056 -114.936588 271 5004ft 203kts
26-Sep-18 13:13 36.073890 -115.005680 270 4145ft 206kts
26-Sep-18 13:14 36.073756 -115.064610 271 3180ft 145kts
26-Sep-18 13:15 36.073693 -115.112616 271 2444ft 144kts
26-Sep-18 13:16 36.073714 -115.147247 272 2190ft 30kts
26-Sep-18 13:17 36.074674 -115.150446 301 2190ft 0kts
26-Sep-18 13:18 36.074674 -115.150446 301 2190ft 0kts
26-Sep-18 13:19 36.074674 -115.150446 301 2190ft 0kts
26-Sep-18 13:20 36.074674 -115.150446 301 2190ft 0kts
26-Sep-18 13:21 36.075851 -115.151662 336 2190ft 13kts
26-Sep-18 13:22 36.078096 -115.152211 25 2190ft 5kts
26-Sep-18 13:23 36.079875 -115.151109 0 2190ft 4kts
26-Sep-18 13:24 36.080018 -115.151107 0 2190ft 0kts
26-Sep-18 13:25 36.080018 -115.151107 0 2190ft 0kts
26-Sep-18 13:26 36.080054 -115.151107 0 2190ft 0kts
26-Sep-18 13:27 36.079593 -115.149751 115 2190ft 7kts
26-Sep-18 13:28 36.078560 -115.146618 81 2190ft 3kts
26-Sep-18 13:29 36.078264 -115.142544 89 2190ft 18kts
26-Sep-18 13:30 36.079474 -115.138664 40 2190ft 14kts

Navigation Log

Ident Type
Flight plan parsing failed, navigation log unavailable